Sluisgracht — PFBE — position and weather

sailwx.info

Track history (hours):
 
Tides and Currents Weather Stations Pressure Air Temp Water Temp Dewpoint Dewpoint Depression Visibility Wind Speed Wind Dir Waves Ship Positions

Sluisgracht

Last reported at 2020-Jul-03 13:30 UTC. Time now 2020-Jul-03 13:35 UTC.
Position N 61°08' E 021°26'.

Length 173 m; beam 26 m.

Type: Cargo ship. MMSI: 244903000.

Date/timePositionNaut miles runAvg speedWind from/ knotsBaromVisibWave heightAir tempDewpointWater temp
2020-Jul-03 13:30N 61°08' E 021°26'0 0.0
2020-Jul-03 10:30N 61°08' E 021°26'0 0.0
2020-Jul-03 10:00N 61°08' E 021°26'0 0.0
2020-Jul-03 09:30N 61°08' E 021°26'0 0.0
2020-Jul-03 09:00N 61°08' E 021°26'0 0.0
2020-Jul-03 08:27N 61°08' E 021°26'0 0.0
2020-Jul-03 06:29N 61°08' E 021°26'0 0.0
2020-Jul-03 04:00N 61°08' E 021°26'6 6.4
2020-Jul-03 03:00N 61°07' E 021°13'612.8
2020-Jul-03 02:31N 61°08' E 020°60'8013.4
2020-Jul-02 20:30N 60°08' E 019°11'1514.9
2020-Jul-02 19:30N 59°56' E 019°30'1514.7
2020-Jul-02 18:30N 59°45' E 019°49'3413.2
2020-Jul-02 15:58N 59°13' E 020°07'25115.3
2020-Jul-01 23:30N 55°03' E 019°04'42 8.3
2020-Jul-01 18:30N 54°24' E 018°39'0 0.0
2020-Jul-01 16:00N 54°24' E 018°39'0 0.0
2020-Jul-01 13:30N 54°24' E 018°39'0 0.0
2020-Jul-01 05:30N 54°24' E 018°39'0 0.0
2020-Jul-01 04:00N 54°24' E 018°39'0 0.0
2020-Jul-01 02:30N 54°24' E 018°39'0 0.0
2020-Jul-01 00:00N 54°24' E 018°39'0 0.0
2020-Jun-30 21:29N 54°24' E 018°39'0 0.0
2020-Jun-30 18:29N 54°24' E 018°39'0 0.0
2020-Jun-30 18:00N 54°24' E 018°39'1 1.5
2020-Jun-30 17:30N 54°25' E 018°39'5 5.1
2020-Jun-30 16:30N 54°29' E 018°44'8 8.4
2020-Jun-30 15:30N 54°36' E 018°53'9 9.5
2020-Jun-30 14:30N 54°45' E 018°58'1313.1
2020-Jun-30 13:30N 54°54' E 018°41'2214.3
2020-Jun-30 11:57N 54°55' E 018°02'19915.3
2020-Jun-29 22:56N 54°35' E 012°18'815.6
2020-Jun-29 22:25N 54°27' E 012°14'1414.9
2020-Jun-29 21:30N 54°24' E 011°51'6012.1
2020-Jun-29 16:30N 55°17' E 011°03'915.0
2020-Jun-29 15:56N 55°26' E 010°58'12213.7
2020-Jun-29 07:00N 57°27' E 011°24'2416.2
2020-Jun-29 05:30N 57°43' E 010°51'1716.9
2020-Jun-29 04:30N 57°46' E 010°20'8118.1
2020-Jun-29 00:03N 57°04' E 008°11'1018.2
2020-Jun-28 23:29N 56°57' E 007°59'2218.1
2020-Jun-28 22:17N 56°37' E 007°40'27218.4
2020-Jun-28 07:30N 52°38' E 003°56'4819.1
2020-Jun-28 05:00N 52°04' E 003°02'4518.0
2020-Jun-28 02:30N 51°29' E 002°15'1717.1
2020-Jun-28 01:30N 51°14' E 002°03'4216.3
2020-Jun-27 22:56N 50°42' E 001°20'717.1
2020-Jun-27 22:30N 50°38' E 001°11'5316.9
2020-Jun-27 19:23N 50°19' W 000°07'616.4
2020-Jun-27 19:00N 50°17' W 000°16'8617.2
2020-Jun-27 14:00N 49°54' W 002°24'1019.1
2020-Jun-27 13:30N 49°51' W 002°39'15414.0
2020-Jun-27 02:30N 47°49' W 005°00'816.4
2020-Jun-27 02:00N 47°45' W 004°49'1616.1
2020-Jun-27 01:00N 47°38' W 004°28'3316.5
2020-Jun-26 23:00N 47°23' W 003°44'3417.0
2020-Jun-26 21:01N 47°08' W 002°60'917.1
2020-Jun-26 20:30N 47°04' W 002°48'2113.9
2020-Jun-26 19:00N 47°10' W 002°19'11 7.1
2020-Jun-26 17:30N 47°18' W 002°09'0 0.0
2020-Jun-26 15:57N 47°18' W 002°09'0 0.0
2020-Jun-26 14:00N 47°18' W 002°09'0 0.0
2020-Jun-26 13:00N 47°18' W 002°09'0 0.0
2020-Jun-26 12:30N 47°18' W 002°09'0 0.0
2020-Jun-26 12:00N 47°18' W 002°09'0 0.0
2020-Jun-26 11:30N 47°18' W 002°09'0 0.0
2020-Jun-26 11:00N 47°18' W 002°09'0 0.0
2020-Jun-26 08:00N 47°18' W 002°09'0 0.0
2020-Jun-26 07:30N 47°18' W 002°09'0 0.0
2020-Jun-26 07:00N 47°18' W 002°09'0 0.0
2020-Jun-26 06:00N 47°18' W 002°09'0 0.0
2020-Jun-26 05:30N 47°18' W 002°09'0 0.0
2020-Jun-26 02:30N 47°18' W 002°09'0 0.0
2020-Jun-26 00:30N 47°18' W 002°09'0 0.0
2020-Jun-25 20:00N 47°18' W 002°09'0 0.0
2020-Jun-25 19:00N 47°18' W 002°09'0 0.0
2020-Jun-25 18:00N 47°18' W 002°09'0 0.0
2020-Jun-25 16:31N 47°18' W 002°09'0 0.0
2020-Jun-25 14:30N 47°18' W 002°09'2 1.2
2020-Jun-25 13:01N 47°17' W 002°11'611.6
2020-Jun-25 12:30N 47°12' W 002°17'611.4
2020-Jun-25 12:00N 47°08' W 002°21'3 6.3
2020-Jun-25 11:30N 47°05' W 002°25'19 9.7
2020-Jun-25 09:30N 46°57' W 002°50'1110.9
2020-Jun-25 08:30N 46°54' W 003°06'4312.4
2020-Jun-25 05:00N 46°42' W 004°07'1514.6
2020-Jun-25 04:00N 46°38' W 004°27'1514.8
2020-Jun-25 03:00N 46°37' W 004°49'1414.2
2020-Jun-25 02:00N 46°36' W 005°09'714.0
2020-Jun-25 01:30N 46°35' W 005°19'2013.6
2020-Jun-25 00:00N 46°34' W 005°49'  
Track history (hours):
 
Tides and Currents Weather Stations Pressure Air Temp Water Temp Dewpoint Dewpoint Depression Visibility Wind Speed Wind Dir Waves Ship Positions

Sluisgracht

Last reported at 2020-Jul-03 13:30 UTC. Time now 2020-Jul-03 13:35 UTC.
Position N 61°08' E 021°26'.

Length 173 m; beam 26 m.

Type: Cargo ship. MMSI: 244903000.

Date/timePositionNaut miles runAvg speedWind from/ knotsBaromVisibWave heightAir tempDewpointWater temp
2020-Jul-03 13:30N 61°08' E 021°26'0 0.0
2020-Jul-03 10:30N 61°08' E 021°26'0 0.0
2020-Jul-03 10:00N 61°08' E 021°26'0 0.0
2020-Jul-03 09:30N 61°08' E 021°26'0 0.0
2020-Jul-03 09:00N 61°08' E 021°26'0 0.0
2020-Jul-03 08:27N 61°08' E 021°26'0 0.0
2020-Jul-03 06:29N 61°08' E 021°26'0 0.0
2020-Jul-03 04:00N 61°08' E 021°26'6 6.4
2020-Jul-03 03:00N 61°07' E 021°13'612.8
2020-Jul-03 02:31N 61°08' E 020°60'8013.4
2020-Jul-02 20:30N 60°08' E 019°11'1514.9
2020-Jul-02 19:30N 59°56' E 019°30'1514.7
2020-Jul-02 18:30N 59°45' E 019°49'3413.2
2020-Jul-02 15:58N 59°13' E 020°07'25115.3
2020-Jul-01 23:30N 55°03' E 019°04'42 8.3
2020-Jul-01 18:30N 54°24' E 018°39'0 0.0
2020-Jul-01 16:00N 54°24' E 018°39'0 0.0
2020-Jul-01 13:30N 54°24' E 018°39'0 0.0
2020-Jul-01 05:30N 54°24' E 018°39'0 0.0
2020-Jul-01 04:00N 54°24' E 018°39'0 0.0
2020-Jul-01 02:30N 54°24' E 018°39'0 0.0
2020-Jul-01 00:00N 54°24' E 018°39'0 0.0
2020-Jun-30 21:29N 54°24' E 018°39'0 0.0
2020-Jun-30 18:29N 54°24' E 018°39'0 0.0
2020-Jun-30 18:00N 54°24' E 018°39'1 1.5
2020-Jun-30 17:30N 54°25' E 018°39'5 5.1
2020-Jun-30 16:30N 54°29' E 018°44'8 8.4
2020-Jun-30 15:30N 54°36' E 018°53'9 9.5
2020-Jun-30 14:30N 54°45' E 018°58'1313.1
2020-Jun-30 13:30N 54°54' E 018°41'2214.3
2020-Jun-30 11:57N 54°55' E 018°02'19915.3
2020-Jun-29 22:56N 54°35' E 012°18'815.6
2020-Jun-29 22:25N 54°27' E 012°14'1414.9
2020-Jun-29 21:30N 54°24' E 011°51'6012.1
2020-Jun-29 16:30N 55°17' E 011°03'915.0
2020-Jun-29 15:56N 55°26' E 010°58'12213.7
2020-Jun-29 07:00N 57°27' E 011°24'2416.2
2020-Jun-29 05:30N 57°43' E 010°51'1716.9
2020-Jun-29 04:30N 57°46' E 010°20'8118.1
2020-Jun-29 00:03N 57°04' E 008°11'1018.2
2020-Jun-28 23:29N 56°57' E 007°59'2218.1
2020-Jun-28 22:17N 56°37' E 007°40'27218.4
2020-Jun-28 07:30N 52°38' E 003°56'4819.1
2020-Jun-28 05:00N 52°04' E 003°02'4518.0
2020-Jun-28 02:30N 51°29' E 002°15'1717.1
2020-Jun-28 01:30N 51°14' E 002°03'4216.3
2020-Jun-27 22:56N 50°42' E 001°20'717.1
2020-Jun-27 22:30N 50°38' E 001°11'5316.9
2020-Jun-27 19:23N 50°19' W 000°07'616.4
2020-Jun-27 19:00N 50°17' W 000°16'8617.2
2020-Jun-27 14:00N 49°54' W 002°24'1019.1
2020-Jun-27 13:30N 49°51' W 002°39'15414.0
2020-Jun-27 02:30N 47°49' W 005°00'816.4
2020-Jun-27 02:00N 47°45' W 004°49'1616.1
2020-Jun-27 01:00N 47°38' W 004°28'3316.5
2020-Jun-26 23:00N 47°23' W 003°44'3417.0
2020-Jun-26 21:01N 47°08' W 002°60'917.1
2020-Jun-26 20:30N 47°04' W 002°48'2113.9
2020-Jun-26 19:00N 47°10' W 002°19'11 7.1
2020-Jun-26 17:30N 47°18' W 002°09'0 0.0
2020-Jun-26 15:57N 47°18' W 002°09'0 0.0
2020-Jun-26 14:00N 47°18' W 002°09'0 0.0
2020-Jun-26 13:00N 47°18' W 002°09'0 0.0
2020-Jun-26 12:30N 47°18' W 002°09'0 0.0
2020-Jun-26 12:00N 47°18' W 002°09'0 0.0
2020-Jun-26 11:30N 47°18' W 002°09'0 0.0
2020-Jun-26 11:00N 47°18' W 002°09'0 0.0
2020-Jun-26 08:00N 47°18' W 002°09'0 0.0
2020-Jun-26 07:30N 47°18' W 002°09'0 0.0
2020-Jun-26 07:00N 47°18' W 002°09'0 0.0
2020-Jun-26 06:00N 47°18' W 002°09'0 0.0
2020-Jun-26 05:30N 47°18' W 002°09'0 0.0
2020-Jun-26 02:30N 47°18' W 002°09'0 0.0
2020-Jun-26 00:30N 47°18' W 002°09'0 0.0
2020-Jun-25 20:00N 47°18' W 002°09'0 0.0
2020-Jun-25 19:00N 47°18' W 002°09'0 0.0
2020-Jun-25 18:00N 47°18' W 002°09'0 0.0
2020-Jun-25 16:31N 47°18' W 002°09'0 0.0
2020-Jun-25 14:30N 47°18' W 002°09'2 1.2
2020-Jun-25 13:01N 47°17' W 002°11'611.6
2020-Jun-25 12:30N 47°12' W 002°17'611.4
2020-Jun-25 12:00N 47°08' W 002°21'3 6.3
2020-Jun-25 11:30N 47°05' W 002°25'19 9.7
2020-Jun-25 09:30N 46°57' W 002°50'1110.9
2020-Jun-25 08:30N 46°54' W 003°06'4312.4
2020-Jun-25 05:00N 46°42' W 004°07'1514.6
2020-Jun-25 04:00N 46°38' W 004°27'1514.8
2020-Jun-25 03:00N 46°37' W 004°49'1414.2
2020-Jun-25 02:00N 46°36' W 005°09'714.0
2020-Jun-25 01:30N 46°35' W 005°19'2013.6
2020-Jun-25 00:00N 46°34' W 005°49'  

Dump ship's entire track history